Carlow, Ireland
Current Conditions -  °F | °C
As of 1:00 AM on Saturday 20 Dec 2014 (Local Time) from EIME Reporting Station
Broken Clouds Broken Clouds  
Wind Chill: 31°   Ceiling: 4000
Heat Index: 41°   Visibility: 6mi
Dew Point: 37°   Wind: 22mph
Humidity: 87%   Direction: 240°WSW
Pressure: 30.15"   Gusts: NA
Location:  52.84°N, 6.92°W
Report Text: EIME 200100Z 24019KT 9999 FEW028 BKN040 05/03 Q1021
Loading
Personal Weather Stations






























Interactive Weather Map New forecast layout! Learn more

10-Day Weather Forecast

Advertisements
Track Severe Weather on mobile